Time;durP1;ratioP1;P1;durP2;ratioP2;P2;SDS_P1;SDS_P2;PMS_P1;PMS_P2;Temp;Humidity;BMP_temperature;BMP_pressure;BME280_temperature;BME280_humidity;BME280_pressure;Samples;Min_cycle;Max_cycle;Signal;HPM_P1;HPM_P2
2021/12/01 00:01:40;;;;;;;3.57;2.33;;;4.30;99.90;;;;;;5021439;28;20208;-82
2021/12/01 00:04:08;;;;;;;12.27;3.07;;;4.30;99.90;;;;;;5002298;28;20407;-82
2021/12/01 00:06:36;;;;;;;11.43;2.43;;;4.30;99.90;;;;;;5018752;28;20588;-82
2021/12/01 00:09:04;;;;;;;11.73;2.50;;;4.30;99.90;;;;;;5003677;28;20204;-84
2021/12/01 00:11:31;;;;;;;7.57;2.23;;;4.30;99.90;;;;;;4992274;28;20213;-83
2021/12/01 00:13:58;;;;;;;9.50;2.43;;;4.30;99.90;;;;;;5008767;28;20203;-84
2021/12/01 00:16:25;;;;;;;11.70;2.37;;;4.40;99.90;;;;;;5027613;28;20219;-81
2021/12/01 00:18:52;;;;;;;11.00;2.60;;;4.40;99.90;;;;;;5005642;28;20224;-84
2021/12/01 00:21:18;;;;;;;6.47;2.63;;;4.40;99.90;;;;;;5025575;28;20323;-82
2021/12/01 00:23:46;;;;;;;10.40;2.23;;;4.50;99.90;;;;;;5027054;28;20204;-83
2021/12/01 00:26:13;;;;;;;8.20;1.70;;;4.50;99.90;;;;;;5028373;28;20770;-83
2021/12/01 00:28:40;;;;;;;6.37;1.70;;;4.50;99.90;;;;;;5014294;28;20700;-83
2021/12/01 00:31:07;;;;;;;7.53;1.67;;;4.60;99.90;;;;;;5039050;28;20192;-83
2021/12/01 00:33:34;;;;;;;11.73;2.10;;;4.60;99.90;;;;;;5037767;28;20211;-82
2021/12/01 00:36:01;;;;;;;13.60;2.20;;;4.60;99.90;;;;;;5013945;28;20230;-84
2021/12/01 00:38:29;;;;;;;7.93;2.17;;;4.60;99.90;;;;;;5023627;28;20194;-82
2021/12/01 00:40:57;;;;;;;6.77;2.67;;;4.70;99.90;;;;;;5011521;28;20226;-84
2021/12/01 00:43:26;;;;;;;7.93;2.20;;;4.70;99.90;;;;;;5033681;28;20215;-82
2021/12/01 00:45:56;;;;;;;16.43;2.67;;;4.70;99.90;;;;;;5032676;28;20247;-85
2021/12/01 00:48:24;;;;;;;7.73;2.17;;;4.70;99.90;;;;;;5015599;28;20294;-82
2021/12/01 00:50:52;;;;;;;12.60;3.00;;;4.70;99.90;;;;;;5027399;28;20204;-85
2021/12/01 00:53:19;;;;;;;11.73;3.33;;;4.70;99.90;;;;;;5035169;28;20819;-82
2021/12/01 00:55:46;;;;;;;9.43;2.33;;;4.70;99.90;;;;;;5034472;28;20223;-84
2021/12/01 00:58:15;;;;;;;6.17;1.87;;;4.70;99.90;;;;;;5006786;28;20775;-82
2021/12/01 01:00:43;;;;;;;12.37;2.20;;;4.80;99.90;;;;;;5020733;28;20208;-83
2021/12/01 01:03:11;;;;;;;13.57;3.10;;;4.70;99.90;;;;;;5026490;28;20292;-82
2021/12/01 01:05:38;;;;;;;11.87;2.87;;;4.80;99.90;;;;;;5021541;28;20586;-82
2021/12/01 01:08:05;;;;;;;9.83;2.70;;;4.80;99.90;;;;;;5013700;28;20269;-83
2021/12/01 01:10:58;;;;;;;12.50;2.93;;;4.70;99.90;;;;;;5015949;28;20308;-83
2021/12/01 01:16:25;;;;;;;9.30;2.60;;;4.70;99.90;;;;;;5027104;28;20474;-81
2021/12/01 01:18:55;;;;;;;13.43;2.93;;;4.70;99.90;;;;;;5030420;28;20265;-83
2021/12/01 01:21:24;;;;;;;10.30;2.33;;;4.70;99.90;;;;;;5001651;28;20204;-82
2021/12/01 01:23:51;;;;;;;9.67;3.20;;;4.70;99.90;;;;;;5017141;28;20223;-85
2021/12/01 01:26:19;;;;;;;19.70;4.30;;;4.70;99.90;;;;;;5010758;28;20311;-82
2021/12/01 01:28:49;;;;;;;13.40;3.43;;;4.70;99.90;;;;;;5009372;28;20567;-84
2021/12/01 01:31:16;;;;;;;13.37;3.13;;;4.70;99.90;;;;;;5021536;28;20215;-82
2021/12/01 01:33:42;;;;;;;12.27;3.83;;;4.70;99.90;;;;;;5014268;28;20196;-81
2021/12/01 01:36:09;;;;;;;8.23;4.20;;;4.70;99.90;;;;;;4998002;28;20231;-83
2021/12/01 01:38:36;;;;;;;11.17;3.33;;;4.60;99.90;;;;;;5036931;28;20196;-82
2021/12/01 01:41:06;;;;;;;18.20;4.77;;;4.60;99.90;;;;;;5014061;28;20767;-83
2021/12/01 01:43:33;;;;;;;9.10;4.07;;;4.70;99.90;;;;;;5003360;28;20250;-81
2021/12/01 01:46:01;;;;;;;15.00;4.20;;;4.70;99.90;;;;;;5025140;28;20310;-84
2021/12/01 01:48:31;;;;;;;11.37;4.47;;;4.60;99.90;;;;;;5028337;28;20212;-82
2021/12/01 01:50:59;;;;;;;12.33;4.70;;;4.70;99.90;;;;;;5009112;28;20210;-83
2021/12/01 01:53:27;;;;;;;16.17;5.80;;;4.70;99.90;;;;;;5022431;28;20203;-81
2021/12/01 01:55:57;;;;;;;9.20;4.93;;;4.70;99.90;;;;;;5013492;28;20227;-83
2021/12/01 01:58:24;;;;;;;9.90;5.30;;;4.70;99.90;;;;;;5009427;28;20417;-81
2021/12/01 02:01:05;;;;;;;9.43;5.60;;;4.70;99.90;;;;;;5003734;28;20208;-83
2021/12/01 02:03:35;;;;;;;13.20;5.47;;;4.70;99.90;;;;;;5011496;28;20206;-82
2021/12/01 02:06:02;;;;;;;13.20;5.93;;;4.70;99.90;;;;;;5008902;28;20228;-84
2021/12/01 02:08:31;;;;;;;11.13;4.90;;;4.70;99.90;;;;;;5001464;28;20223;-82
2021/12/01 02:10:59;;;;;;;13.77;6.20;;;4.70;99.90;;;;;;5027432;28;20196;-84
2021/12/01 02:13:27;;;;;;;10.10;6.13;;;4.70;99.90;;;;;;5006635;28;20197;-81
2021/12/01 02:15:54;;;;;;;10.27;5.70;;;4.70;99.90;;;;;;5004913;28;20291;-84
2021/12/01 02:18:21;;;;;;;14.60;6.00;;;4.70;99.90;;;;;;5009390;28;20307;-82
2021/12/01 02:21:11;;;;;;;15.00;5.67;;;4.70;99.90;;;;;;5010648;28;20204;-84
2021/12/01 02:23:40;;;;;;;9.83;6.17;;;4.70;99.90;;;;;;5010899;28;20211;-83
2021/12/01 02:26:08;;;;;;;14.70;6.43;;;4.80;99.90;;;;;;5004787;28;20246;-83
2021/12/01 02:28:36;;;;;;;11.43;6.40;;;4.80;99.90;;;;;;5012082;28;20230;-83
2021/12/01 02:31:03;;;;;;;12.20;6.33;;;4.80;99.90;;;;;;5018133;28;20200;-85
2021/12/01 02:33:30;;;;;;;10.17;5.53;;;4.80;99.90;;;;;;5009144;28;20695;-82
2021/12/01 02:35:58;;;;;;;14.13;6.27;;;4.80;99.90;;;;;;5005331;28;20220;-84
2021/12/01 02:38:25;;;;;;;10.73;5.20;;;4.80;99.90;;;;;;5023805;28;20271;-84
2021/12/01 02:40:53;;;;;;;9.37;5.30;;;4.80;99.90;;;;;;5003029;28;20489;-82
2021/12/01 02:43:23;;;;;;;9.63;4.50;;;4.90;99.90;;;;;;5031901;28;20210;-85
2021/12/01 02:45:53;;;;;;;11.60;5.13;;;4.80;99.90;;;;;;5017151;28;20251;-82
2021/12/01 02:48:20;;;;;;;11.43;5.20;;;4.90;99.90;;;;;;5007912;28;20716;-84
2021/12/01 02:50:47;;;;;;;14.00;5.60;;;4.90;99.90;;;;;;5005308;28;20192;-83
2021/12/01 02:53:15;;;;;;;7.17;4.20;;;4.90;99.90;;;;;;5008520;28;20208;-83
2021/12/01 02:55:51;;;;;;;6.93;4.50;;;4.90;99.90;;;;;;4998971;28;20307;-83
2021/12/01 02:58:19;;;;;;;7.50;3.80;;;4.90;99.90;;;;;;5033958;28;20700;-84
2021/12/01 03:00:46;;;;;;;7.07;4.03;;;4.90;99.90;;;;;;5006567;28;20421;-82
2021/12/01 03:03:13;;;;;;;4.30;3.40;;;4.90;99.90;;;;;;5004399;28;20218;-82
2021/12/01 03:05:41;;;;;;;6.00;3.23;;;4.90;99.90;;;;;;5007879;28;20908;-82
2021/12/01 03:08:08;;;;;;;5.60;3.67;;;5.00;99.90;;;;;;5031953;28;20227;-83
2021/12/01 03:10:36;;;;;;;5.57;3.20;;;5.00;99.90;;;;;;4996545;28;20558;-84
2021/12/01 03:13:03;;;;;;;7.10;3.60;;;5.00;99.90;;;;;;5009522;28;20208;-82
2021/12/01 03:15:30;;;;;;;6.53;2.93;;;5.00;99.90;;;;;;5015298;28;20356;-84
2021/12/01 03:17:58;;;;;;;3.73;2.93;;;5.00;99.90;;;;;;5016875;28;20203;-82
2021/12/01 03:20:25;;;;;;;5.00;2.70;;;5.00;99.90;;;;;;5007070;28;20208;-83
2021/12/01 03:22:52;;;;;;;3.87;2.43;;;5.00;99.90;;;;;;5006894;28;20378;-82
2021/12/01 03:25:19;;;;;;;3.00;2.30;;;5.10;99.90;;;;;;5008076;28;20259;-84
2021/12/01 03:27:47;;;;;;;5.57;2.30;;;5.10;99.90;;;;;;5001445;28;20488;-82
2021/12/01 03:30:14;;;;;;;3.03;1.93;;;5.10;99.90;;;;;;5033889;28;20283;-82
2021/12/01 03:32:42;;;;;;;3.20;1.67;;;5.10;99.90;;;;;;5017716;28;20512;-82
2021/12/01 03:35:10;;;;;;;2.03;1.63;;;5.10;99.90;;;;;;5007563;28;20208;-82
2021/12/01 03:37:37;;;;;;;5.47;1.50;;;5.10;99.90;;;;;;5015620;28;20187;-82
2021/12/01 03:40:06;;;;;;;1.50;1.30;;;5.20;99.90;;;;;;5011944;28;20208;-83
2021/12/01 03:42:33;;;;;;;1.33;1.23;;;5.20;99.90;;;;;;4996908;28;20216;-84
2021/12/01 03:45:01;;;;;;;1.60;1.47;;;5.20;99.90;;;;;;5027788;28;20571;-82
2021/12/01 03:47:28;;;;;;;1.63;1.30;;;5.20;99.90;;;;;;5008979;28;20235;-84
2021/12/01 03:49:55;;;;;;;1.93;1.20;;;5.20;99.90;;;;;;5004420;28;20473;-83
2021/12/01 03:52:23;;;;;;;2.10;1.10;;;5.20;99.90;;;;;;5006765;28;20211;-83
2021/12/01 03:54:52;;;;;;;1.20;1.10;;;5.30;99.90;;;;;;5005652;28;20350;-82
2021/12/01 03:57:19;;;;;;;2.80;1.23;;;5.30;99.90;;;;;;5009353;28;20265;-84
2021/12/01 03:59:46;;;;;;;2.10;0.97;;;5.30;99.90;;;;;;5004764;28;20409;-82
2021/12/01 04:02:14;;;;;;;1.53;1.43;;;5.30;99.90;;;;;;5038093;28;20200;-81
2021/12/01 04:04:41;;;;;;;1.40;1.30;;;5.30;99.90;;;;;;5019651;28;20413;-82
2021/12/01 04:07:08;;;;;;;3.33;1.40;;;5.30;99.90;;;;;;5016375;28;20218;-82
2021/12/01 04:09:36;;;;;;;1.37;1.17;;;5.30;99.90;;;;;;5032156;28;20200;-83
2021/12/01 04:12:03;;;;;;;1.60;1.50;;;5.30;99.90;;;;;;5011816;28;20215;-82
2021/12/01 04:14:29;;;;;;;1.43;1.13;;;5.30;99.90;;;;;;5020371;28;20218;-83
2021/12/01 04:16:56;;;;;;;1.30;1.23;;;5.30;99.90;;;;;;5010666;28;20675;-82
2021/12/01 04:19:25;;;;;;;1.63;1.33;;;5.40;99.90;;;;;;5009385;28;20207;-83
2021/12/01 04:21:52;;;;;;;2.40;1.40;;;5.40;99.90;;;;;;5009711;28;20408;-82
2021/12/01 04:24:19;;;;;;;1.23;1.10;;;5.40;99.90;;;;;;5028640;28;20200;-84
2021/12/01 04:26:46;;;;;;;1.90;1.30;;;5.40;99.90;;;;;;5009133;28;20274;-82
2021/12/01 04:29:13;;;;;;;1.53;0.90;;;5.40;99.90;;;;;;5013456;28;20234;-82
2021/12/01 04:31:40;;;;;;;1.30;1.20;;;5.40;99.90;;;;;;5006169;28;20199;-82
2021/12/01 04:34:08;;;;;;;1.47;1.30;;;5.40;99.90;;;;;;5015143;28;20200;-82
2021/12/01 04:36:39;;;;;;;2.67;1.50;;;5.40;99.90;;;;;;5032741;28;20272;-83
2021/12/01 04:39:08;;;;;;;1.30;1.20;;;5.40;99.90;;;;;;5017017;28;20578;-82
2021/12/01 04:41:39;;;;;;;1.80;1.30;;;5.40;99.90;;;;;;5028094;28;20196;-84
2021/12/01 04:44:10;;;;;;;3.07;1.50;;;5.40;99.90;;;;;;5013871;28;20572;-82
2021/12/01 04:46:41;;;;;;;1.57;1.47;;;5.40;99.90;;;;;;4997581;28;20251;-82
2021/12/01 04:49:08;;;;;;;2.03;1.63;;;5.40;99.90;;;;;;5027172;28;20223;-82
2021/12/01 04:51:37;;;;;;;2.10;1.57;;;5.50;99.90;;;;;;5012978;28;20207;-83
2021/12/01 04:54:04;;;;;;;2.20;1.33;;;5.50;99.90;;;;;;5032228;28;20668;-82
2021/12/01 04:56:31;;;;;;;1.30;1.30;;;5.50;99.90;;;;;;5020903;28;20222;-84
2021/12/01 04:58:59;;;;;;;1.30;1.20;;;5.50;99.90;;;;;;5032016;28;20720;-82
2021/12/01 05:01:26;;;;;;;1.73;1.10;;;5.60;99.90;;;;;;4998012;28;20207;-83
2021/12/01 05:03:52;;;;;;;1.13;1.10;;;5.60;99.90;;;;;;5020950;28;20323;-82
2021/12/01 05:06:19;;;;;;;1.77;1.33;;;5.60;99.90;;;;;;5027843;28;20246;-83
2021/12/01 05:08:47;;;;;;;1.10;1.10;;;5.60;99.90;;;;;;5010044;28;20430;-81
2021/12/01 05:11:14;;;;;;;1.27;1.17;;;5.70;99.90;;;;;;5012463;28;20212;-83
2021/12/01 05:13:41;;;;;;;2.17;1.47;;;5.60;99.90;;;;;;5011193;28;20207;-83
2021/12/01 05:16:08;;;;;;;1.30;1.20;;;5.70;99.90;;;;;;5030530;28;20223;-82
2021/12/01 05:18:34;;;;;;;1.40;1.30;;;5.70;99.90;;;;;;4998941;28;20216;-82
2021/12/01 05:21:01;;;;;;;1.27;1.17;;;5.70;99.90;;;;;;5015700;28;20200;-82
2021/12/01 05:23:28;;;;;;;1.47;1.37;;;5.70;99.90;;;;;;5008417;28;20208;-83
2021/12/01 05:25:56;;;;;;;1.50;1.40;;;5.70;99.90;;;;;;5013757;28;20223;-83
2021/12/01 05:28:23;;;;;;;1.80;1.70;;;5.70;99.90;;;;;;4995491;28;20219;-82
2021/12/01 05:30:50;;;;;;;2.03;1.70;;;5.70;99.90;;;;;;5008978;28;20204;-83
2021/12/01 05:33:16;;;;;;;1.70;1.60;;;5.80;99.90;;;;;;5010382;28;20214;-82
2021/12/01 05:35:46;;;;;;;1.90;1.70;;;5.80;99.90;;;;;;5017772;28;20231;-84
2021/12/01 05:38:13;;;;;;;1.90;1.80;;;5.80;99.90;;;;;;5030614;28;20503;-82
2021/12/01 05:40:40;;;;;;;2.33;1.80;;;5.90;99.90;;;;;;5019323;28;20210;-83
2021/12/01 05:43:09;;;;;;;3.03;2.03;;;5.90;99.90;;;;;;5012939;28;20201;-82
2021/12/01 05:45:36;;;;;;;2.50;2.30;;;6.00;99.90;;;;;;5008288;28;20621;-83
2021/12/01 05:48:03;;;;;;;2.70;2.50;;;6.00;99.90;;;;;;5008469;28;20710;-82
2021/12/01 05:50:29;;;;;;;2.37;2.17;;;6.00;99.90;;;;;;5021560;28;20203;-82
2021/12/01 05:52:56;;;;;;;3.90;2.50;;;6.10;99.90;;;;;;5027955;28;20187;-83
2021/12/01 05:55:23;;;;;;;2.70;2.50;;;6.10;99.90;;;;;;5025773;28;20227;-82
2021/12/01 05:57:51;;;;;;;2.57;2.37;;;6.10;99.90;;;;;;5003886;28;20661;-83
2021/12/01 06:00:19;;;;;;;2.87;2.67;;;6.10;99.90;;;;;;5019244;28;20223;-82
2021/12/01 06:02:49;;;;;;;2.90;2.70;;;6.20;99.90;;;;;;5016976;28;20578;-82
2021/12/01 06:05:16;;;;;;;2.90;2.70;;;6.20;99.90;;;;;;5006022;28;20606;-82
2021/12/01 06:07:43;;;;;;;3.50;3.30;;;6.20;99.90;;;;;;5009481;28;20212;-83
2021/12/01 06:10:11;;;;;;;3.63;3.33;;;6.20;99.90;;;;;;5006207;28;20412;-83
2021/12/01 06:12:39;;;;;;;4.20;3.80;;;6.30;99.90;;;;;;5006746;28;20200;-82
2021/12/01 06:15:08;;;;;;;4.33;3.93;;;6.30;99.90;;;;;;5031579;28;20200;-83
2021/12/01 06:17:36;;;;;;;4.50;4.10;;;6.30;99.90;;;;;;5021245;28;20232;-82
2021/12/01 06:20:05;;;;;;;4.37;3.97;;;6.40;99.90;;;;;;5003351;28;20227;-82
2021/12/01 06:22:32;;;;;;;6.17;4.53;;;6.50;99.90;;;;;;5007214;28;20223;-82
2021/12/01 06:24:59;;;;;;;4.70;4.30;;;6.50;99.90;;;;;;5011211;28;20230;-81
2021/12/01 06:27:26;;;;;;;5.73;5.23;;;6.60;99.90;;;;;;5004852;28;20207;-82
2021/12/01 06:29:53;;;;;;;5.37;4.93;;;6.70;99.90;;;;;;5005019;28;20208;-82
2021/12/01 06:32:20;;;;;;;6.07;5.13;;;6.80;99.90;;;;;;5011881;28;20724;-80
2021/12/01 06:34:49;;;;;;;5.90;5.40;;;6.90;99.90;;;;;;5004121;28;20215;-84
2021/12/01 06:37:18;;;;;;;5.97;5.47;;;6.90;99.90;;;;;;5003999;28;20744;-82
2021/12/01 06:39:45;;;;;;;10.87;5.83;;;7.00;99.90;;;;;;5011242;28;20204;-84
2021/12/01 06:42:12;;;;;;;8.83;5.63;;;7.10;99.90;;;;;;5012558;28;20204;-82
2021/12/01 06:44:39;;;;;;;17.53;7.83;;;7.20;99.90;;;;;;5012549;28;20297;-84
2021/12/01 06:47:06;;;;;;;26.73;8.03;;;7.40;99.90;;;;;;5011830;28;20215;-84
2021/12/01 06:49:32;;;;;;;8.83;5.57;;;7.70;99.90;;;;;;5016255;28;20656;-85
2021/12/01 06:52:01;;;;;;;26.87;10.60;;;7.90;99.90;;;;;;5000844;28;21239;-82
2021/12/01 06:54:27;;;;;;;15.57;6.90;;;8.10;99.90;;;;;;5016240;28;20856;-81
2021/12/01 06:56:54;;;;;;;23.00;7.50;;;8.20;99.90;;;;;;5012355;28;20249;-83
2021/12/01 06:59:21;;;;;;;16.17;7.13;;;8.20;99.90;;;;;;5009246;28;20255;-83
2021/12/01 07:01:48;;;;;;;15.73;6.73;;;8.30;99.90;;;;;;5017355;28;20270;-83
2021/12/01 07:04:15;;;;;;;10.50;5.63;;;8.40;99.90;;;;;;5016254;28;20687;-81
2021/12/01 07:06:42;;;;;;;10.60;6.00;;;8.40;99.90;;;;;;5001391;28;20227;-84
2021/12/01 07:09:17;;;;;;;4.83;2.20;;;8.50;99.90;;;;;;5012229;28;20246;-81
2021/12/01 07:11:44;;;;;;;10.53;5.17;;;8.50;99.90;;;;;;5017870;28;20656;-83
2021/12/01 07:14:10;;;;;;;17.60;6.20;;;8.60;99.90;;;;;;5014251;28;20194;-81
2021/12/01 07:16:37;;;;;;;4.97;4.20;;;8.60;99.90;;;;;;5033035;28;20229;-84
2021/12/01 07:19:06;;;;;;;11.23;4.53;;;8.60;99.90;;;;;;5016689;28;20203;-80
2021/12/01 07:21:32;;;;;;;12.17;5.50;;;8.60;99.90;;;;;;5036538;28;20219;-83
2021/12/01 07:23:59;;;;;;;7.77;4.33;;;8.60;99.90;;;;;;5003905;28;20875;-81
2021/12/01 07:26:27;;;;;;;4.53;3.23;;;8.60;99.90;;;;;;5012213;28;20235;-81
2021/12/01 07:28:54;;;;;;;8.37;3.77;;;8.70;99.90;;;;;;5022877;28;20490;-80
2021/12/01 07:31:21;;;;;;;10.53;4.20;;;8.70;99.90;;;;;;5013371;28;20203;-82
2021/12/01 07:33:48;;;;;;;8.70;4.80;;;8.70;99.90;;;;;;5021842;28;20210;-83
2021/12/01 07:36:15;;;;;;;5.70;3.33;;;8.70;99.90;;;;;;5010327;28;20281;-84
2021/12/01 07:38:42;;;;;;;2.93;2.50;;;8.70;99.90;;;;;;5003352;28;20211;-81
2021/12/01 07:41:09;;;;;;;9.27;4.03;;;8.70;99.90;;;;;;5020467;28;20206;-80
2021/12/01 07:43:37;;;;;;;5.13;3.80;;;8.70;99.90;;;;;;5027217;28;20425;-82
2021/12/01 07:46:04;;;;;;;9.00;3.93;;;8.70;99.90;;;;;;5034063;28;20242;-82
2021/12/01 07:48:31;;;;;;;10.20;4.00;;;8.70;99.90;;;;;;5018047;28;20207;-83
2021/12/01 07:50:58;;;;;;;24.20;8.13;;;8.70;99.90;;;;;;5038760;28;20206;-80
2021/12/01 07:53:25;;;;;;;2.57;2.37;;;8.70;99.90;;;;;;5026267;28;20682;-83
2021/12/01 07:55:52;;;;;;;4.60;3.53;;;8.70;99.90;;;;;;5016804;28;20226;-81
2021/12/01 07:58:18;;;;;;;3.93;3.53;;;8.70;99.90;;;;;;5030760;28;20205;-83
2021/12/01 08:00:46;;;;;;;6.77;4.20;;;8.70;99.90;;;;;;5020405;28;20218;-81
2021/12/01 08:03:13;;;;;;;11.30;4.40;;;8.70;99.90;;;;;;5037617;28;20208;-83
2021/12/01 08:05:40;;;;;;;16.80;5.90;;;8.70;99.90;;;;;;5015528;28;20339;-82
2021/12/01 08:08:07;;;;;;;9.43;3.77;;;8.70;99.90;;;;;;5028766;28;20211;-81
2021/12/01 08:10:34;;;;;;;5.93;3.93;;;8.70;99.90;;;;;;5013734;28;20700;-81
2021/12/01 08:13:01;;;;;;;9.10;5.33;;;8.60;99.90;;;;;;5011828;28;20215;-80
2021/12/01 08:15:28;;;;;;;3.13;2.83;;;8.60;99.90;;;;;;5033874;28;20253;-82
2021/12/01 08:17:59;;;;;;;5.93;3.43;;;8.60;99.90;;;;;;5017828;28;20222;-81
2021/12/01 08:20:27;;;;;;;4.60;3.80;;;8.60;99.90;;;;;;5031808;28;20207;-84
2021/12/01 08:22:54;;;;;;;8.83;4.30;;;8.60;99.90;;;;;;5016574;28;20202;-80
2021/12/01 08:25:22;;;;;;;3.33;3.10;;;8.60;99.90;;;;;;5003820;28;20573;-83
2021/12/01 08:27:48;;;;;;;16.83;6.43;;;8.60;99.90;;;;;;5026474;28;20321;-80
2021/12/01 08:30:16;;;;;;;13.67;5.43;;;8.50;99.90;;;;;;5018454;28;20227;-83
2021/12/01 08:32:45;;;;;;;10.20;4.97;;;8.50;99.90;;;;;;5014190;28;20207;-81
2021/12/01 08:35:14;;;;;;;16.17;5.33;;;8.50;99.90;;;;;;5033405;28;20239;-82
2021/12/01 08:37:41;;;;;;;12.10;5.67;;;8.50;99.90;;;;;;5030080;28;20192;-81
2021/12/01 08:40:08;;;;;;;10.07;6.30;;;8.50;99.90;;;;;;5006970;28;20207;-80
2021/12/01 08:42:35;;;;;;;7.90;4.73;;;8.50;99.90;;;;;;5026654;28;20433;-80
2021/12/01 08:45:02;;;;;;;5.77;4.70;;;8.50;99.90;;;;;;4999706;28;20214;-80
2021/12/01 08:47:31;;;;;;;4.33;3.10;;;8.50;99.90;;;;;;5003205;28;20227;-80
2021/12/01 08:49:58;;;;;;;10.03;4.17;;;8.40;99.90;;;;;;5000459;28;21921;-80
2021/12/01 08:52:27;;;;;;;3.27;3.07;;;8.50;99.90;;;;;;5001606;28;20569;-80
2021/12/01 08:54:54;;;;;;;3.67;3.30;;;8.50;99.90;;;;;;5024142;28;20580;-81
2021/12/01 08:57:21;;;;;;;3.20;3.00;;;8.40;99.90;;;;;;5005154;28;20212;-81
2021/12/01 08:59:49;;;;;;;3.23;2.90;;;8.40;99.90;;;;;;5007332;28;20687;-81
2021/12/01 09:02:16;;;;;;;4.20;3.30;;;8.50;99.90;;;;;;5027271;28;20208;-83
2021/12/01 09:04:42;;;;;;;4.07;3.23;;;8.50;99.90;;;;;;5025724;28;20750;-81
2021/12/01 09:07:09;;;;;;;4.10;2.80;;;8.40;99.90;;;;;;5005139;28;20227;-83
2021/12/01 09:09:37;;;;;;;3.27;3.00;;;8.50;99.90;;;;;;5011919;28;20893;-81
2021/12/01 09:12:05;;;;;;;11.83;4.90;;;8.50;99.90;;;;;;5016736;28;20214;-81
2021/12/01 09:14:32;;;;;;;3.63;3.20;;;8.50;99.90;;;;;;5008102;28;20199;-83
2021/12/01 09:16:58;;;;;;;9.33;4.43;;;8.50;99.90;;;;;;5010463;28;20229;-82
2021/12/01 09:19:26;;;;;;;4.27;3.20;;;8.50;99.90;;;;;;5010392;28;20834;-84
2021/12/01 09:21:53;;;;;;;9.20;3.77;;;8.50;99.90;;;;;;5010036;28;20615;-85
2021/12/01 09:24:21;;;;;;;4.43;3.10;;;8.40;99.90;;;;;;5002967;28;20211;-84
2021/12/01 09:26:50;;;;;;;3.87;3.10;;;8.50;99.90;;;;;;5003265;28;20223;-83
2021/12/01 09:29:17;;;;;;;8.43;3.83;;;8.40;99.90;;;;;;5003407;28;20216;-81
2021/12/01 09:31:44;;;;;;;10.80;3.37;;;8.40;99.90;;;;;;5012254;28;20424;-83
2021/12/01 09:34:11;;;;;;;5.10;3.17;;;8.40;99.90;;;;;;5027322;28;20572;-81
2021/12/01 09:36:38;;;;;;;3.27;2.97;;;8.40;99.90;;;;;;4992678;28;20339;-83
2021/12/01 09:39:04;;;;;;;10.63;4.07;;;8.30;99.90;;;;;;5028572;28;20251;-84
2021/12/01 09:41:32;;;;;;;9.60;5.27;;;8.30;99.90;;;;;;5005036;28;20543;-83
2021/12/01 09:44:00;;;;;;;4.90;3.10;;;8.30;99.90;;;;;;5013780;28;20295;-82
2021/12/01 09:46:30;;;;;;;13.93;4.53;;;8.30;99.90;;;;;;5028491;28;20867;-83
2021/12/01 09:48:58;;;;;;;7.87;3.40;;;8.30;99.90;;;;;;5021902;28;20224;-81
2021/12/01 09:51:28;;;;;;;5.47;3.63;;;8.30;99.90;;;;;;5009022;28;20215;-84
2021/12/01 09:53:55;;;;;;;24.87;6.83;;;8.30;99.90;;;;;;5013676;28;20200;-83
2021/12/01 09:56:24;;;;;;;10.33;4.00;;;8.30;99.90;;;;;;5008900;28;20220;-87
2021/12/01 09:58:54;;;;;;;10.07;4.40;;;8.30;99.90;;;;;;5005855;28;20211;-84
2021/12/01 10:01:41;;;;;;;8.33;3.87;;;8.40;99.90;;;;;;5015281;28;20200;-88
2021/12/01 10:04:08;;;;;;;7.43;3.67;;;8.40;99.90;;;;;;5016117;28;20195;-86
2021/12/01 10:06:35;;;;;;;5.10;3.00;;;8.40;99.90;;;;;;5005577;28;20237;-84
2021/12/01 10:09:15;;;;;;;5.07;3.20;;;8.40;99.90;;;;;;5009977;28;20211;-84
2021/12/01 10:11:43;;;;;;;13.30;4.07;;;8.40;99.90;;;;;;5027298;28;20200;-87
2021/12/01 10:14:17;;;;;;;13.33;4.20;;;8.40;99.90;;;;;;5010604;28;20212;-85
2021/12/01 10:16:52;;;;;;;2.53;2.40;;;8.50;99.90;;;;;;5010959;28;20230;-84
2021/12/01 10:19:29;;;;;;;7.60;3.50;;;8.50;99.90;;;;;;5015124;28;20206;-84
2021/12/01 10:21:57;;;;;;;7.87;3.47;;;8.50;99.90;;;;;;5046494;28;20183;-83
2021/12/01 10:24:25;;;;;;;11.23;4.60;;;8.50;99.90;;;;;;5032679;28;20211;-84
2021/12/01 10:26:57;;;;;;;10.90;3.57;;;8.50;99.90;;;;;;5009243;28;20227;-90
2021/12/01 10:29:27;;;;;;;8.80;3.33;;;8.50;99.90;;;;;;5009959;28;20692;-85
2021/12/01 10:31:57;;;;;;;17.47;4.63;;;8.50;99.90;;;;;;5013189;28;20234;-85
2021/12/01 10:34:28;;;;;;;4.30;2.03;;;8.50;99.90;;;;;;5008965;28;20208;-84
2021/12/01 10:37:13;;;;;;;13.67;4.27;;;8.50;99.90;;;;;;5031725;28;20238;-85
2021/12/01 10:39:43;;;;;;;12.43;3.97;;;8.50;99.90;;;;;;4989594;28;20228;-86
2021/12/01 10:42:12;;;;;;;6.27;2.70;;;8.50;99.90;;;;;;5009271;28;20283;-84
2021/12/01 10:44:55;;;;;;;8.00;3.23;;;8.60;99.90;;;;;;5008779;28;20208;-85
2021/12/01 10:47:38;;;;;;;;;;;;;;;;;;;;;
2021/12/01 10:50:27;;;;;;;1.70;1.60;;;8.60;99.90;;;;;;5013396;28;20306;-85
2021/12/01 10:53:01;;;;;;;2.43;1.60;;;8.60;99.90;;;;;;5007269;28;20475;-85
2021/12/01 10:55:28;;;;;;;2.03;1.90;;;8.60;99.90;;;;;;5011892;28;20684;-84
2021/12/01 10:57:58;;;;;;;4.13;2.17;;;8.60;99.90;;;;;;5007503;28;20995;-85
2021/12/01 11:00:41;;;;;;;;;;;;;;;;;;;;;
2021/12/01 11:03:30;;;;;;;1.50;1.40;;;8.70;99.90;;;;;;5021310;28;20203;-85
2021/12/01 11:06:07;;;;;;;2.33;1.40;;;8.70;99.90;;;;;;5004771;28;20224;-85
2021/12/01 11:08:37;;;;;;;8.93;3.30;;;8.70;99.90;;;;;;5027347;28;20287;-85
2021/12/01 11:11:10;;;;;;;1.70;1.60;;;8.70;99.90;;;;;;5009578;28;20219;-86
2021/12/01 11:13:43;;;;;;;8.33;3.33;;;8.60;99.90;;;;;;5011875;28;20290;-86
2021/12/01 11:16:19;;;;;;;7.40;2.80;;;8.60;99.90;;;;;;5010225;28;20292;-85
2021/12/01 11:18:49;;;;;;;3.63;2.70;;;8.60;99.90;;;;;;5014456;28;20260;-85
2021/12/01 11:21:18;;;;;;;5.27;3.13;;;8.60;99.90;;;;;;5019538;28;20210;-91
2021/12/01 11:23:47;;;;;;;6.43;3.20;;;8.60;99.90;;;;;;5008708;28;20214;-84
2021/12/01 11:26:22;;;;;;;10.70;2.77;;;8.60;99.90;;;;;;5028924;28;20220;-87
2021/12/01 11:28:58;;;;;;;4.87;2.83;;;8.60;99.90;;;;;;5008749;28;20394;-85
2021/12/01 11:31:31;;;;;;;6.47;3.27;;;8.60;99.90;;;;;;5008033;28;20224;-86
2021/12/01 11:36:48;;;;;;;1.87;1.77;;;8.60;99.90;;;;;;4996191;28;20297;-85
2021/12/01 11:39:22;;;;;;;3.57;2.27;;;8.70;99.90;;;;;;5010179;28;20211;-83
2021/12/01 11:41:51;;;;;;;5.77;2.97;;;8.70;99.90;;;;;;5010256;28;20250;-85
2021/12/01 11:44:25;;;;;;;1.40;1.30;;;8.70;99.90;;;;;;5027780;28;20234;-86
2021/12/01 11:46:53;;;;;;;2.33;1.70;;;8.70;99.90;;;;;;5012876;28;20211;-84
2021/12/01 11:49:24;;;;;;;8.23;2.70;;;8.70;99.90;;;;;;5029951;28;20192;-84
2021/12/01 11:51:58;;;;;;;6.37;2.17;;;8.70;99.90;;;;;;5011506;28;20643;-85
2021/12/01 11:54:27;;;;;;;6.00;2.77;;;8.70;99.90;;;;;;5006832;28;20200;-86
2021/12/01 11:56:56;;;;;;;9.17;3.33;;;8.70;99.90;;;;;;5014979;28;20216;-84
2021/12/01 11:59:24;;;;;;;5.90;2.30;;;8.70;99.90;;;;;;5001158;28;20212;-86
2021/12/01 12:01:58;;;;;;;5.77;2.20;;;8.80;99.90;;;;;;5007146;28;20207;-85
2021/12/01 12:04:41;;;;;;;3.93;1.60;;;8.80;99.90;;;;;;5033652;28;20219;-84
2021/12/01 12:07:12;;;;;;;4.10;2.13;;;8.80;99.90;;;;;;5028053;28;20244;-85
2021/12/01 12:09:41;;;;;;;3.70;1.93;;;8.80;99.90;;;;;;5025605;28;20188;-85
2021/12/01 12:12:20;;;;;;;3.03;1.63;;;8.80;99.90;;;;;;5012570;28;20204;-85
2021/12/01 12:14:56;;;;;;;4.70;2.83;;;8.90;99.90;;;;;;5026679;28;20641;-85
2021/12/01 12:17:35;;;;;;;1.37;0.90;;;9.00;99.90;;;;;;5008447;28;20209;-88
2021/12/01 12:20:18;;;;;;;1.07;0.97;;;9.10;99.90;;;;;;5038372;28;20225;-86
2021/12/01 12:23:09;;;;;;;3.43;1.37;;;9.10;99.90;;;;;;5048835;28;20787;-85
2021/12/01 12:25:45;;;;;;;1.60;1.37;;;9.10;99.90;;;;;;5031448;28;20215;-85
2021/12/01 12:28:25;;;;;;;1.50;1.00;;;9.20;99.90;;;;;;5016506;28;20286;-86
2021/12/01 12:30:52;;;;;;;3.77;1.80;;;9.20;99.90;;;;;;5029626;28;20215;-85
2021/12/01 12:33:22;;;;;;;2.63;1.80;;;9.10;99.90;;;;;;5009844;28;20294;-83
2021/12/01 12:35:54;;;;;;;2.87;1.60;;;9.20;99.90;;;;;;5005237;28;22424;-84
2021/12/01 12:38:20;;;;;;;3.07;2.20;;;9.10;99.90;;;;;;5019348;28;20214;-82
2021/12/01 12:41:02;;;;;;;2.20;1.07;;;9.10;99.90;;;;;;5010576;28;20408;-86
2021/12/01 12:43:32;;;;;;;5.33;2.47;;;9.10;99.90;;;;;;4999554;28;20635;-88
2021/12/01 12:46:09;;;;;;;4.63;2.20;;;9.00;99.90;;;;;;5011733;28;20875;-88
2021/12/01 12:48:39;;;;;;;1.40;1.20;;;9.00;99.90;;;;;;4989333;28;20494;-86
2021/12/01 12:51:28;;;;;;;6.77;2.80;;;9.00;99.90;;;;;;5011121;28;20635;-85
2021/12/01 12:54:16;;;;;;;3.93;2.23;;;8.90;99.90;;;;;;5014704;28;20196;-85
2021/12/01 12:56:55;;;;;;;4.90;2.30;;;8.90;99.90;;;;;;5027342;28;20230;-85
2021/12/01 12:59:33;;;;;;;3.43;1.50;;;8.90;99.90;;;;;;5028023;28;20303;-86
2021/12/01 13:02:30;;;;;;;2.03;1.30;;;9.00;99.90;;;;;;5030391;28;20195;-85
2021/12/01 13:05:02;;;;;;;3.10;1.77;;;8.90;99.90;;;;;;5017172;28;20273;-85
2021/12/01 13:07:42;;;;;;;1.40;1.30;;;9.00;99.90;;;;;;5027741;28;20674;-85
2021/12/01 13:10:13;;;;;;;2.10;1.10;;;9.00;99.90;;;;;;5006607;28;20218;-83
2021/12/01 13:13:02;;;;;;;3.80;1.30;;;9.10;99.90;;;;;;5006527;28;20230;-84